Time;durP1;ratioP1;P1;durP2;ratioP2;P2;SDS_P1;SDS_P2;PMS_P1;PMS_P2;Temp;Humidity;BMP_temperature;BMP_pressure;BME280_temperature;BME280_humidity;BME280_pressure;Samples;Min_cycle;Max_cycle;Signal;HPM_P1;HPM_P2
2023/10/26 00:00:39;;;;;;;1.40;1.27;;;;;12.10;96674.00;;;;5034339;28;20046;-64
2023/10/26 00:03:06;;;;;;;1.30;1.20;;;;;12.10;96676.00;;;;5034598;28;20057;-65
2023/10/26 00:05:32;;;;;;;1.65;1.52;;;;;12.10;96680.00;;;;5033210;28;20120;-65
2023/10/26 00:07:59;;;;;;;1.73;1.38;;;;;12.10;96680.00;;;;5033716;28;20045;-65
2023/10/26 00:10:26;;;;;;;1.20;1.17;;;;;12.00;96674.00;;;;5033434;28;20041;-65
2023/10/26 00:12:52;;;;;;;1.33;1.17;;;;;12.10;96680.00;;;;5032379;28;20034;-66
2023/10/26 00:15:19;;;;;;;1.30;1.20;;;;;12.10;96680.00;;;;5031379;28;20080;-63
2023/10/26 00:17:46;;;;;;;2.10;1.35;;;;;12.10;96693.00;;;;5033274;28;20041;-65
2023/10/26 00:20:12;;;;;;;1.60;1.50;;;;;12.10;96687.00;;;;5033202;28;20120;-65
2023/10/26 00:22:39;;;;;;;1.95;1.50;;;;;12.10;96690.00;;;;5033949;28;20048;-65
2023/10/26 00:25:06;;;;;;;1.73;1.63;;;;;12.10;96694.00;;;;5033095;28;20079;-64
2023/10/26 00:27:33;;;;;;;1.70;1.60;;;;;12.10;96692.00;;;;5032818;28;20060;-65
2023/10/26 00:30:00;;;;;;;1.70;1.60;;;;;12.10;96693.00;;;;5016743;28;20068;-65
2023/10/26 00:32:26;;;;;;;1.83;1.73;;;;;12.00;96694.00;;;;5032727;28;20057;-65
2023/10/26 00:34:53;;;;;;;3.33;1.92;;;;;12.00;96695.00;;;;5033533;28;20099;-65
2023/10/26 00:37:20;;;;;;;1.75;1.65;;;;;12.00;96695.00;;;;5033832;28;20041;-64
2023/10/26 00:39:49;;;;;;;3.50;2.13;;;;;12.00;96693.00;;;;5036474;28;20511;-66
2023/10/26 00:42:16;;;;;;;2.10;1.95;;;;;12.00;96698.00;;;;5038232;28;20045;-65
2023/10/26 00:44:46;;;;;;;2.63;1.95;;;;;12.00;96703.00;;;;5037650;28;20045;-65
2023/10/26 00:47:14;;;;;;;2.15;2.03;;;;;12.00;96701.00;;;;5039440;28;20494;-65
2023/10/26 00:49:42;;;;;;;2.42;2.22;;;;;12.00;96702.00;;;;5038463;28;20041;-66
2023/10/26 00:52:10;;;;;;;2.20;2.10;;;;;12.00;96699.00;;;;5036993;28;20052;-65
2023/10/26 00:54:40;;;;;;;3.63;2.35;;;;;11.90;96703.00;;;;5034638;28;20069;-66
2023/10/26 00:57:07;;;;;;;2.50;2.30;;;;;12.00;96710.00;;;;5033346;28;20048;-66
2023/10/26 00:59:34;;;;;;;2.90;2.70;;;;;12.00;96709.00;;;;5017193;28;20049;-66
2023/10/26 01:02:02;;;;;;;2.88;2.67;;;;;12.00;96713.00;;;;5033748;28;20116;-64
2023/10/26 01:04:29;;;;;;;3.85;2.67;;;;;12.00;96713.00;;;;5033515;28;20064;-65
2023/10/26 01:06:56;;;;;;;2.75;2.55;;;;;12.00;96711.00;;;;5032634;28;20067;-65
2023/10/26 01:09:23;;;;;;;2.83;2.53;;;;;12.00;96714.00;;;;5032018;28;20045;-65
2023/10/26 01:11:49;;;;;;;3.95;2.90;;;;;12.10;96716.00;;;;5033349;28;20045;-65
2023/10/26 01:14:16;;;;;;;2.90;2.55;;;;;12.00;96720.00;;;;5032716;28;20037;-65
2023/10/26 01:16:43;;;;;;;3.20;2.80;;;;;12.00;96725.00;;;;5033135;28;20072;-65
2023/10/26 01:19:09;;;;;;;3.05;2.85;;;;;12.00;96729.00;;;;5031428;28;20132;-65
2023/10/26 01:21:50;;;;;;;3.63;3.10;;;;;12.00;96725.00;;;;5031570;28;20048;-65
2023/10/26 01:24:19;;;;;;;3.88;3.58;;;;;12.00;96739.00;;;;5030570;28;20041;-65
2023/10/26 01:26:46;;;;;;;4.07;3.05;;;;;12.00;96736.00;;;;5031448;28;20141;-65
2023/10/26 01:29:13;;;;;;;3.92;3.55;;;;;12.00;96736.00;;;;5034145;28;20048;-65
2023/10/26 01:31:39;;;;;;;3.60;3.33;;;;;12.00;96733.00;;;;5032957;28;20148;-64
2023/10/26 01:34:06;;;;;;;4.38;3.95;;;;;12.00;96731.00;;;;5033402;28;20041;-65
2023/10/26 01:36:32;;;;;;;3.88;3.55;;;;;12.00;96728.00;;;;5032624;28;20052;-65
2023/10/26 01:39:00;;;;;;;3.90;3.28;;;;;12.00;96728.00;;;;5032287;28;20041;-65
2023/10/26 01:41:32;;;;;;;3.28;3.08;;;;;11.90;96735.00;;;;5032139;28;20041;-65
2023/10/26 01:44:00;;;;;;;3.10;2.80;;;;;11.80;96732.00;;;;5030191;28;20042;-65
2023/10/26 01:46:28;;;;;;;2.90;2.60;;;;;11.80;96731.00;;;;5032140;28;20061;-64
2023/10/26 01:48:54;;;;;;;5.53;2.78;;;;;11.70;96731.00;;;;5032091;28;20048;-65
2023/10/26 01:51:21;;;;;;;3.63;2.92;;;;;11.70;96733.00;;;;5032265;28;20065;-65
2023/10/26 01:53:48;;;;;;;2.72;2.53;;;;;11.70;96727.00;;;;5031464;28;20042;-65
2023/10/26 01:56:14;;;;;;;3.42;2.97;;;;;11.70;96724.00;;;;5030796;28;20441;-65
2023/10/26 01:58:41;;;;;;;3.17;2.80;;;;;11.70;96729.00;;;;5030710;28;20152;-65
2023/10/26 02:01:07;;;;;;;3.58;2.42;;;;;11.70;96735.00;;;;5034526;28;20491;-66
2023/10/26 02:03:34;;;;;;;2.60;2.40;;;;;11.70;96730.00;;;;5033639;28;20716;-64
2023/10/26 02:06:02;;;;;;;3.83;2.72;;;;;11.70;96721.00;;;;5035409;28;20064;-64
2023/10/26 02:08:29;;;;;;;2.90;2.70;;;;;11.70;96731.00;;;;5033994;28;20115;-65
2023/10/26 02:10:56;;;;;;;2.72;2.53;;;;;11.70;96724.00;;;;5034189;28;20096;-64
2023/10/26 02:13:22;;;;;;;3.88;2.53;;;;;11.60;96726.00;;;;5035156;28;20041;-63
2023/10/26 02:15:49;;;;;;;3.97;2.60;;;;;11.60;96723.00;;;;5033687;28;20080;-65
2023/10/26 02:18:15;;;;;;;2.60;2.40;;;;;11.60;96726.00;;;;5034413;28;20060;-65
2023/10/26 02:20:42;;;;;;;2.60;2.40;;;;;11.50;96726.00;;;;5033848;28;20050;-65
2023/10/26 02:23:09;;;;;;;4.03;2.78;;;;;11.50;96723.00;;;;5034890;28;20425;-63
2023/10/26 02:25:35;;;;;;;3.20;2.90;;;;;11.50;96729.00;;;;5033641;28;20049;-64
2023/10/26 02:28:03;;;;;;;3.65;2.40;;;;;11.40;96723.00;;;;5034025;28;20063;-64
2023/10/26 02:30:29;;;;;;;2.50;2.30;;;;;11.40;96728.00;;;;5033593;28;20096;-64
2023/10/26 02:32:56;;;;;;;4.15;2.22;;;;;11.30;96729.00;;;;5017112;28;20136;-64
2023/10/26 02:35:23;;;;;;;3.00;2.70;;;;;11.30;96729.00;;;;5032898;28;20053;-63
2023/10/26 02:37:49;;;;;;;3.75;2.50;;;;;11.20;96728.00;;;;5033599;28;20052;-65
2023/10/26 02:40:16;;;;;;;4.03;2.70;;;;;11.30;96722.00;;;;5034169;28;20072;-65
2023/10/26 02:42:42;;;;;;;2.80;2.60;;;;;11.30;96723.00;;;;5034808;28;20048;-64
2023/10/26 02:45:09;;;;;;;3.33;2.50;;;;;11.30;96720.00;;;;5034130;28;20456;-64
2023/10/26 02:47:37;;;;;;;3.30;3.00;;;;;11.40;96714.00;;;;5034543;28;20518;-65
2023/10/26 02:50:06;;;;;;;2.72;2.53;;;;;11.40;96723.00;;;;5033297;28;20414;-65
2023/10/26 02:52:32;;;;;;;2.88;2.55;;;;;11.30;96703.00;;;;5034595;28;20072;-65
2023/10/26 02:54:59;;;;;;;4.35;2.63;;;;;11.30;96704.00;;;;5034035;28;20450;-64
2023/10/26 02:57:26;;;;;;;2.50;2.25;;;;;11.30;96706.00;;;;5033293;28;20136;-64
2023/10/26 02:59:53;;;;;;;3.75;2.85;;;;;11.30;96718.00;;;;5034394;28;20045;-63
2023/10/26 03:02:20;;;;;;;4.22;3.08;;;;;11.30;96707.00;;;;5034329;28;20038;-64
2023/10/26 03:04:47;;;;;;;4.13;3.05;;;;;11.30;96707.00;;;;5033414;28;20413;-65
2023/10/26 03:07:20;;;;;;;14.02;4.55;;;;;11.30;96709.00;;;;5035404;28;20418;-65
2023/10/26 03:09:47;;;;;;;3.20;2.90;;;;;11.30;96703.00;;;;5035029;28;20465;-65
2023/10/26 03:12:14;;;;;;;4.18;3.30;;;;;11.30;96706.00;;;;5034899;28;20121;-65
2023/10/26 03:14:40;;;;;;;3.65;3.03;;;;;11.30;96696.00;;;;5035291;28;20120;-65
2023/10/26 03:17:07;;;;;;;3.13;2.85;;;;;11.30;96697.00;;;;5034544;28;20495;-65
2023/10/26 03:19:34;;;;;;;3.47;2.72;;;;;11.30;96703.00;;;;5034410;28;20072;-65
2023/10/26 03:22:01;;;;;;;4.00;3.50;;;;;11.30;96701.00;;;;5033136;28;20046;-65
2023/10/26 03:24:27;;;;;;;3.92;3.17;;;;;11.30;96694.00;;;;5033609;28;20072;-65
2023/10/26 03:26:54;;;;;;;3.17;2.88;;;;;11.30;96697.00;;;;5033894;28;20045;-64
2023/10/26 03:29:21;;;;;;;4.10;2.92;;;;;11.30;96700.00;;;;5033836;28;20041;-65
2023/10/26 03:31:47;;;;;;;2.97;2.78;;;;;11.30;96696.00;;;;5033688;28;20092;-64
2023/10/26 03:34:14;;;;;;;3.70;3.17;;;;;11.30;96702.00;;;;5033250;28;20049;-64
2023/10/26 03:36:40;;;;;;;4.20;3.50;;;;;11.30;96688.00;;;;5033795;28;20069;-65
2023/10/26 03:39:07;;;;;;;3.80;3.50;;;;;11.20;96701.00;;;;5033522;28;20041;-65
2023/10/26 03:41:34;;;;;;;4.93;3.15;;;;;11.20;96704.00;;;;5033631;28;20045;-65
2023/10/26 03:44:00;;;;;;;3.70;3.30;;;;;11.20;96701.00;;;;5031869;28;20046;-65
2023/10/26 03:46:27;;;;;;;3.72;3.42;;;;;11.20;96694.00;;;;5033585;28;20052;-65
2023/10/26 03:48:54;;;;;;;4.28;3.63;;;;;11.20;96693.00;;;;5032132;28;20045;-65
2023/10/26 03:51:20;;;;;;;4.03;2.92;;;;;11.20;96700.00;;;;5032396;28;20451;-65
2023/10/26 03:53:47;;;;;;;4.25;3.63;;;;;11.30;96695.00;;;;5032112;28;20041;-65
2023/10/26 03:56:16;;;;;;;3.92;3.55;;;;;11.30;96695.00;;;;5032316;28;20077;-65
2023/10/26 03:58:42;;;;;;;4.15;3.65;;;;;11.30;96701.00;;;;5033374;28;20041;-64
2023/10/26 04:01:09;;;;;;;5.45;3.70;;;;;11.30;96701.00;;;;5032061;28;20409;-65
2023/10/26 04:03:35;;;;;;;4.90;3.55;;;;;11.30;96703.00;;;;5031337;28;20056;-64
2023/10/26 04:06:03;;;;;;;5.53;3.92;;;;;11.30;96700.00;;;;5033253;28;20046;-64
2023/10/26 04:08:29;;;;;;;5.07;3.90;;;;;11.20;96693.00;;;;5033079;28;20125;-64
2023/10/26 04:10:56;;;;;;;5.85;3.90;;;;;11.20;96701.00;;;;5033101;28;20045;-63
2023/10/26 04:13:22;;;;;;;4.55;4.13;;;;;11.10;96703.00;;;;5033014;28;20096;-64
2023/10/26 04:15:58;;;;;;;8.27;4.20;;;;;11.10;96694.00;;;;5032379;28;20052;-64
2023/10/26 04:18:24;;;;;;;5.20;4.20;;;;;11.10;96685.00;;;;5032808;28;20049;-64
2023/10/26 04:20:51;;;;;;;4.30;3.90;;;;;11.10;96695.00;;;;5032890;28;20494;-64
2023/10/26 04:23:17;;;;;;;4.85;4.00;;;;;11.10;96688.00;;;;5032106;28;20041;-64
2023/10/26 04:25:45;;;;;;;5.40;4.00;;;;;11.10;96686.00;;;;5032418;28;20084;-64
2023/10/26 04:28:20;;;;;;;5.47;4.20;;;;;11.10;96688.00;;;;5032937;28;20045;-64
2023/10/26 04:30:47;;;;;;;5.18;4.68;;;;;11.20;96688.00;;;;5032661;28;20069;-64
2023/10/26 04:33:14;;;;;;;4.97;4.47;;;;;11.20;96690.00;;;;5032621;28;20072;-64
2023/10/26 04:35:43;;;;;;;5.07;4.40;;;;;11.20;96687.00;;;;5032146;28;20413;-64
2023/10/26 04:38:09;;;;;;;6.32;4.53;;;;;11.30;96683.00;;;;5031325;28;20048;-64
2023/10/26 04:40:40;;;;;;;4.82;4.38;;;;;11.30;96682.00;;;;5032577;28;20045;-64
2023/10/26 04:43:08;;;;;;;6.30;4.68;;;;;11.40;96692.00;;;;5032380;28;20049;-65
2023/10/26 04:45:35;;;;;;;5.32;4.75;;;;;11.40;96683.00;;;;5031918;28;20044;-64
2023/10/26 04:48:02;;;;;;;6.28;4.45;;;;;11.50;96683.00;;;;5032445;28;20132;-64
2023/10/26 04:50:30;;;;;;;8.90;4.78;;;;;11.50;96682.00;;;;5032450;28;20045;-64
2023/10/26 04:52:58;;;;;;;8.48;6.10;;;;;11.50;96686.00;;;;5032423;28;20041;-64
2023/10/26 04:55:30;;;;;;;7.32;5.85;;;;;11.50;96685.00;;;;5031745;28;20033;-63
2023/10/26 04:57:57;;;;;;;7.60;4.45;;;;;11.60;96686.00;;;;5032202;28;20050;-63
2023/10/26 05:00:24;;;;;;;7.85;5.38;;;;;11.60;96672.00;;;;5032200;28;20099;-63
2023/10/26 05:02:51;;;;;;;6.00;4.57;;;;;11.60;96677.00;;;;5031138;28;20049;-63
2023/10/26 05:05:18;;;;;;;4.97;4.47;;;;;11.60;96672.00;;;;5031656;28;20080;-64
2023/10/26 05:07:45;;;;;;;6.10;5.00;;;;;11.60;96682.00;;;;5032151;28;20048;-63
2023/10/26 05:10:12;;;;;;;5.75;5.20;;;;;11.70;96683.00;;;;5032235;28;20072;-65
2023/10/26 05:12:39;;;;;;;12.75;7.30;;;;;11.70;96690.00;;;;5032369;28;20128;-65
2023/10/26 05:15:05;;;;;;;11.38;9.48;;;;;11.80;96690.00;;;;5030577;28;20099;-65
2023/10/26 05:17:36;;;;;;;8.35;7.00;;;;;11.80;96679.00;;;;5032125;28;20037;-64
2023/10/26 05:20:03;;;;;;;6.22;5.53;;;;;11.80;96667.00;;;;5032528;28;20075;-64
2023/10/26 05:22:32;;;;;;;8.75;6.10;;;;;11.90;96669.00;;;;5032122;28;20514;-65
2023/10/26 05:25:04;;;;;;;7.70;6.90;;;;;11.90;96674.00;;;;5033136;28;20041;-63
2023/10/26 05:27:32;;;;;;;7.00;5.18;;;;;11.90;96671.00;;;;5035102;28;20472;-65
2023/10/26 05:30:03;;;;;;;8.15;6.35;;;;;11.90;96656.00;;;;5034218;28;20099;-63
2023/10/26 05:32:30;;;;;;;8.60;5.90;;;;;11.80;96667.00;;;;5033813;28;20053;-64
2023/10/26 05:34:57;;;;;;;7.85;5.55;;;;;11.70;96666.00;;;;5036775;28;20034;-64
2023/10/26 05:37:23;;;;;;;5.95;5.35;;;;;11.70;96660.00;;;;5037855;28;20049;-65
2023/10/26 05:39:50;;;;;;;5.80;4.80;;;;;11.70;96666.00;;;;5036800;28;20132;-65
2023/10/26 05:42:16;;;;;;;7.90;5.82;;;;;11.60;96659.00;;;;5036283;28;20129;-65
2023/10/26 05:44:43;;;;;;;6.10;5.50;;;;;11.50;96657.00;;;;5035612;28;20045;-65
2023/10/26 05:47:10;;;;;;;9.60;5.78;;;;;11.50;96647.00;;;;5036270;28;20064;-65
2023/10/26 05:49:37;;;;;;;7.32;6.13;;;;;11.50;96648.00;;;;5036053;28;20072;-64
2023/10/26 05:52:03;;;;;;;6.20;5.28;;;;;11.60;96652.00;;;;5036000;28;20128;-65
2023/10/26 05:54:30;;;;;;;7.22;5.30;;;;;11.60;96661.00;;;;5035143;28;20038;-65
2023/10/26 05:56:57;;;;;;;8.50;5.60;;;;;11.80;96662.00;;;;5035988;28;20056;-64
2023/10/26 05:59:24;;;;;;;5.75;5.15;;;;;11.80;96648.00;;;;5035689;28;20485;-65
2023/10/26 06:01:50;;;;;;;6.43;5.70;;;;;11.90;96646.00;;;;5034413;28;20136;-65
2023/10/26 06:04:18;;;;;;;7.88;5.75;;;;;11.90;96650.00;;;;5034112;28;20449;-65
2023/10/26 06:06:44;;;;;;;7.05;5.78;;;;;11.90;96659.00;;;;5035576;28;20383;-65
2023/10/26 06:09:11;;;;;;;7.35;5.70;;;;;11.90;96660.00;;;;5034461;28;20041;-64
2023/10/26 06:11:38;;;;;;;6.40;5.03;;;;;11.90;96656.00;;;;5035605;28;20382;-64
2023/10/26 06:14:04;;;;;;;11.45;5.50;;;;;11.90;96651.00;;;;5034738;28;20044;-64
2023/10/26 06:16:31;;;;;;;5.85;5.15;;;;;12.00;96645.00;;;;5035516;28;20041;-65
2023/10/26 06:18:58;;;;;;;8.57;5.20;;;;;12.00;96649.00;;;;5035484;28;20041;-63
2023/10/26 06:21:24;;;;;;;6.28;5.68;;;;;12.10;96652.00;;;;5035249;28;20046;-64
2023/10/26 06:23:51;;;;;;;7.68;5.50;;;;;12.10;96654.00;;;;5033403;28;20059;-65
2023/10/26 06:26:17;;;;;;;7.63;5.75;;;;;12.20;96656.00;;;;5035242;28;20445;-65
2023/10/26 06:28:46;;;;;;;7.60;5.97;;;;;12.20;96638.00;;;;5035129;28;20068;-65
2023/10/26 06:31:16;;;;;;;7.90;5.18;;;;;12.10;96644.00;;;;5033986;28;20046;-65
2023/10/26 06:33:43;;;;;;;7.20;5.40;;;;;12.10;96640.00;;;;5034462;28;20045;-65
2023/10/26 06:36:10;;;;;;;6.70;6.00;;;;;12.10;96638.00;;;;5034990;28;20053;-64
2023/10/26 06:38:38;;;;;;;7.47;5.65;;;;;12.10;96639.00;;;;5035003;28;20157;-64
2023/10/26 06:41:06;;;;;;;7.28;6.03;;;;;12.20;96644.00;;;;5034966;28;20049;-65
2023/10/26 06:43:32;;;;;;;6.75;5.80;;;;;12.30;96651.00;;;;5034299;28;20111;-64
2023/10/26 06:46:02;;;;;;;6.10;5.45;;;;;12.30;96648.00;;;;5033034;28;20494;-65
2023/10/26 06:48:29;;;;;;;7.55;5.55;;;;;12.40;96642.00;;;;5034936;28;20049;-64
2023/10/26 06:51:03;;;;;;;7.93;6.13;;;;;12.40;96642.00;;;;5034753;28;20051;-63
2023/10/26 06:53:29;;;;;;;;;;;;;12.50;96646.00;;;;5034630;28;20045;-65
2023/10/26 06:55:57;;;;;;;6.68;5.60;;;;;12.40;96651.00;;;;5017030;28;19921;-63
2023/10/26 06:58:24;;;;;;;7.85;5.85;;;;;12.50;96639.00;;;;5034515;28;20067;-64
2023/10/26 07:00:50;;;;;;;9.40;6.38;;;;;12.50;96647.00;;;;5033387;28;20406;-63
2023/10/26 07:03:19;;;;;;;10.23;6.32;;;;;12.50;96644.00;;;;5033212;28;20048;-63
2023/10/26 07:05:47;;;;;;;7.65;6.80;;;;;12.40;96646.00;;;;5033588;28;20072;-65
2023/10/26 07:08:15;;;;;;;14.63;10.30;;;;;12.50;96647.00;;;;5034313;28;20045;-63
2023/10/26 07:10:42;;;;;;;16.60;11.50;;;;;12.50;96646.00;;;;5033292;28;20533;-63
2023/10/26 07:13:09;;;;;;;9.27;7.43;;;;;12.50;96641.00;;;;5033242;28;20387;-62
2023/10/26 07:15:36;;;;;;;8.98;7.05;;;;;12.60;96638.00;;;;5032659;28;20110;-64
2023/10/26 07:18:06;;;;;;;10.07;6.68;;;;;12.60;96624.00;;;;5034037;28;20132;-63
2023/10/26 07:20:33;;;;;;;9.40;7.10;;;;;12.50;96636.00;;;;5034369;28;20064;-64
2023/10/26 07:22:59;;;;;;;7.30;6.60;;;;;12.50;96623.00;;;;5032966;28;20464;-63
2023/10/26 07:25:26;;;;;;;8.88;7.07;;;;;12.60;96614.00;;;;5032151;28;20470;-65
2023/10/26 07:27:53;;;;;;;9.00;8.07;;;;;12.60;96612.00;;;;5033706;28;20561;-63
2023/10/26 07:30:20;;;;;;;12.45;8.00;;;;;12.70;96617.00;;;;5034054;28;20049;-64
2023/10/26 07:32:46;;;;;;;10.93;8.60;;;;;12.70;96611.00;;;;5033846;28;20041;-65
2023/10/26 07:35:15;;;;;;;10.40;8.13;;;;;12.70;96622.00;;;;5033530;28;20132;-63
2023/10/26 07:37:42;;;;;;;15.43;7.93;;;;;12.70;96621.00;;;;5034033;28;20550;-64
2023/10/26 07:40:23;;;;;;;9.45;7.22;;;;;12.80;96619.00;;;;5032462;28;20045;-63
2023/10/26 07:42:56;;;;;;;11.48;7.50;;;;;12.90;96621.00;;;;5033861;28;20115;-64
2023/10/26 07:45:25;;;;;;;10.50;8.25;;;;;13.00;96617.00;;;;5032895;28;20042;-65
2023/10/26 07:47:52;;;;;;;10.35;7.95;;;;;13.10;96625.00;;;;5033671;28;20731;-64
2023/10/26 07:50:22;;;;;;;10.90;7.45;;;;;13.10;96614.00;;;;5016098;28;20055;-63
2023/10/26 07:52:49;;;;;;;11.05;7.40;;;;;13.10;96608.00;;;;5033705;28;20132;-62
2023/10/26 07:55:17;;;;;;;11.30;8.35;;;;;13.30;96599.00;;;;5033180;28;20041;-62
2023/10/26 07:57:43;;;;;;;10.13;8.02;;;;;13.40;96593.00;;;;5032415;28;20053;-62
2023/10/26 08:00:11;;;;;;;11.20;7.72;;;;;13.40;96605.00;;;;5033680;28;20529;-64
2023/10/26 08:02:39;;;;;;;11.85;8.70;;;;;13.40;96594.00;;;;5032260;28;20053;-63
2023/10/26 08:05:08;;;;;;;9.50;7.32;;;;;13.40;96598.00;;;;5031369;28;20053;-65
2023/10/26 08:07:37;;;;;;;12.75;7.95;;;;;13.50;96620.00;;;;5031956;28;20048;-65
2023/10/26 08:10:04;;;;;;;9.02;6.90;;;;;13.60;96626.00;;;;5031805;28;20407;-64
2023/10/26 08:12:31;;;;;;;8.25;6.63;;;;;13.70;96626.00;;;;5031939;28;20519;-63
2023/10/26 08:14:57;;;;;;;10.45;6.80;;;;;13.70;96614.00;;;;5033455;28;20061;-61
2023/10/26 08:17:44;;;;;;;8.70;6.68;;;;;13.60;96597.00;;;;5032910;28;20449;-61
2023/10/26 08:20:11;;;;;;;8.20;6.28;;;;;13.60;96610.00;;;;5031583;28;20041;-62
2023/10/26 08:22:38;;;;;;;14.57;6.93;;;;;13.70;96618.00;;;;5033002;28;20396;-62
2023/10/26 08:25:05;;;;;;;11.00;8.50;;;;;13.70;96620.00;;;;5032308;28;20037;-61
2023/10/26 08:27:32;;;;;;;9.35;7.00;;;;;13.60;96629.00;;;;5032511;28;20521;-62
2023/10/26 08:29:58;;;;;;;10.55;5.40;;;;;13.60;96641.00;;;;5032348;28;20505;-62
2023/10/26 08:32:25;;;;;;;6.32;5.05;;;;;13.60;96642.00;;;;5032427;28;20052;-60
2023/10/26 08:34:52;;;;;;;8.55;5.68;;;;;13.60;96657.00;;;;5031986;28;20033;-61
2023/10/26 08:37:18;;;;;;;9.07;6.45;;;;;13.50;96674.00;;;;5030852;28;20075;-62
2023/10/26 08:39:45;;;;;;;9.68;7.10;;;;;13.50;96674.00;;;;5030577;28;20140;-62
2023/10/26 08:42:12;;;;;;;8.48;7.05;;;;;13.40;96686.00;;;;5031194;28;20069;-62
2023/10/26 08:44:42;;;;;;;15.23;7.50;;;;;13.40;96687.00;;;;5029967;28;20099;-60
2023/10/26 08:47:14;;;;;;;8.32;6.22;;;;;13.30;96691.00;;;;5031619;28;20538;-61
2023/10/26 08:49:43;;;;;;;9.23;6.28;;;;;13.30;96700.00;;;;5030231;28;20049;-62
2023/10/26 08:52:16;;;;;;;6.50;5.88;;;;;13.40;96701.00;;;;5030930;28;20407;-61
2023/10/26 08:54:42;;;;;;;9.75;6.25;;;;;13.40;96692.00;;;;5031688;28;20450;-61
2023/10/26 08:57:09;;;;;;;10.60;6.55;;;;;13.30;96693.00;;;;5032290;28;20041;-60
2023/10/26 08:59:36;;;;;;;8.55;5.80;;;;;13.30;96701.00;;;;5032182;28;20418;-60
2023/10/26 09:02:04;;;;;;;8.70;6.25;;;;;13.30;96701.00;;;;5032218;28;20052;-63
2023/10/26 09:04:31;;;;;;;8.27;6.45;;;;;13.30;96696.00;;;;5031489;28;20071;-61
2023/10/26 09:06:57;;;;;;;11.20;7.25;;;;;13.20;96702.00;;;;5032251;28;20045;-60
2023/10/26 09:09:24;;;;;;;9.43;6.82;;;;;13.00;96696.00;;;;5031893;28;20047;-60
2023/10/26 09:11:50;;;;;;;9.77;6.22;;;;;13.00;96695.00;;;;5031965;28;20045;-62
2023/10/26 09:14:19;;;;;;;8.65;6.47;;;;;13.10;96687.00;;;;5031591;28;20049;-62
2023/10/26 09:16:47;;;;;;;8.88;5.80;;;;;13.00;96675.00;;;;5032088;28;20128;-62
2023/10/26 09:19:16;;;;;;;8.65;5.72;;;;;12.80;96680.00;;;;5032126;28;20507;-61
2023/10/26 09:21:57;;;;;;;8.48;5.53;;;;;12.90;96679.00;;;;5032893;28;20099;-60
2023/10/26 09:24:26;;;;;;;6.22;5.20;;;;;12.90;96673.00;;;;5031778;28;20052;-60
2023/10/26 09:26:54;;;;;;;7.32;5.28;;;;;13.00;96658.00;;;;5032120;28;20042;-60
2023/10/26 09:29:34;;;;;;;7.75;5.70;;;;;13.00;96652.00;;;;5032061;28;20520;-60
2023/10/26 09:32:01;;;;;;;8.68;4.28;;;;;13.20;96658.00;;;;5032348;28;20047;-64
2023/10/26 09:34:28;;;;;;;6.05;4.10;;;;;13.30;96665.00;;;;5031933;28;20069;-62
2023/10/26 09:37:02;;;;;;;5.40;3.75;;;;;13.50;96663.00;;;;5030711;28;20129;-64
2023/10/26 09:39:31;;;;;;;5.63;3.60;;;;;13.70;96665.00;;;;5032008;28;20057;-63
2023/10/26 09:41:59;;;;;;;4.60;3.70;;;;;13.70;96651.00;;;;5032248;28;20464;-65
2023/10/26 09:44:27;;;;;;;6.07;4.28;;;;;13.60;96650.00;;;;5031328;28;20129;-64
2023/10/26 09:46:54;;;;;;;4.65;4.05;;;;;13.50;96660.00;;;;5031913;28;20041;-64
2023/10/26 09:49:25;;;;;;;6.20;4.10;;;;;13.50;96649.00;;;;5031656;28;20100;-63
2023/10/26 09:51:53;;;;;;;5.63;3.30;;;;;13.60;96657.00;;;;5032204;28;20076;-64
2023/10/26 09:54:27;;;;;;;4.13;3.72;;;;;13.60;96646.00;;;;5013643;28;20054;-64
2023/10/26 09:57:33;;;;;;;5.53;4.00;;;;;13.70;96639.00;;;;5032186;28;20041;-64
2023/10/26 10:00:00;;;;;;;4.65;3.00;;;;;13.90;96635.00;;;;5031776;28;20048;-63
2023/10/26 10:02:27;;;;;;;5.32;2.90;;;;;13.90;96637.00;;;;5031738;28;20067;-63
2023/10/26 10:04:54;;;;;;;4.82;3.08;;;;;14.00;96634.00;;;;5031376;28;20073;-64
2023/10/26 10:07:41;;;;;;;3.63;2.95;;;;;14.20;96640.00;;;;5032244;28;20128;-64
2023/10/26 10:10:10;;;;;;;4.88;2.90;;;;;14.30;96644.00;;;;5031679;28;20045;-64
2023/10/26 10:12:38;;;;;;;16.08;11.43;;;;;14.40;96647.00;;;;5033369;28;20824;-63
2023/10/26 10:15:07;;;;;;;6.22;3.03;;;;;14.50;96656.00;;;;5032429;28;20092;-64
2023/10/26 10:17:42;;;;;;;3.88;2.22;;;;;14.60;96649.00;;;;5033810;28;20046;-64
2023/10/26 10:20:16;;;;;;;2.38;2.17;;;;;14.60;96651.00;;;;5034526;28;20037;-64
2023/10/26 10:22:48;;;;;;;7.75;5.10;;;;;14.50;96656.00;;;;5035977;28;20058;-64
2023/10/26 10:25:17;;;;;;;6.63;4.05;;;;;14.60;96656.00;;;;5035516;28;20072;-64
2023/10/26 10:27:47;;;;;;;4.18;2.00;;;;;14.60;96661.00;;;;5034676;28;20091;-64
2023/10/26 10:30:18;;;;;;;2.00;1.70;;;;;14.60;96650.00;;;;5036060;28;20420;-63
2023/10/26 10:35:32;;;;;;;4.40;1.90;;;;;14.40;96658.00;;;;5035357;28;20080;-64
2023/10/26 10:38:11;;;;;;;3.78;2.95;;;;;14.40;96660.00;;;;5027227;28;20088;-63
2023/10/26 10:40:39;;;;;;;5.18;3.25;;;;;14.40;96661.00;;;;5034054;28;20045;-63
2023/10/26 10:43:06;;;;;;;2.33;1.90;;;;;14.30;96655.00;;;;5017278;28;20045;-62
2023/10/26 10:45:33;;;;;;;9.05;4.03;;;;;14.30;96638.00;;;;5034224;28;20049;-62
2023/10/26 10:48:04;;;;;;;3.13;2.00;;;;;14.30;96625.00;;;;5036101;28;20049;-63
2023/10/26 10:50:31;;;;;;;1.83;1.67;;;;;14.10;96609.00;;;;5038690;28;20056;-63
2023/10/26 10:52:57;;;;;;;2.08;1.40;;;;;14.00;96606.00;;;;5037537;28;20056;-63
2023/10/26 10:55:31;;;;;;;2.65;1.55;;;;;14.10;96591.00;;;;5037933;28;20044;-63
2023/10/26 10:58:02;;;;;;;2.92;1.83;;;;;14.10;96580.00;;;;5036617;28;20049;-64
2023/10/26 11:00:48;;;;;;;2.38;1.67;;;;;14.20;96580.00;;;;5035479;28;20491;-65
2023/10/26 11:03:24;;;;;;;2.95;2.70;;;;;14.20;96580.00;;;;5036387;28;20049;-64
2023/10/26 11:05:51;;;;;;;2.50;1.90;;;;;14.30;96580.00;;;;5037096;28;20049;-64
2023/10/26 11:08:19;;;;;;;2.88;2.13;;;;;14.40;96582.00;;;;5038085;28;20121;-63
2023/10/26 11:10:49;;;;;;;2.35;1.60;;;;;14.40;96579.00;;;;5036478;28;20410;-63
2023/10/26 11:13:20;;;;;;;4.35;3.20;;;;;14.40;96581.00;;;;5042655;28;20052;-63
2023/10/26 11:15:46;;;;;;;1.52;1.42;;;;;14.20;96578.00;;;;5047427;28;20071;-64
2023/10/26 11:18:13;;;;;;;2.25;1.63;;;;;14.20;96578.00;;;;5047411;28;20053;-62
2023/10/26 11:20:41;;;;;;;2.70;1.75;;;;;14.20;96575.00;;;;5048598;28;20113;-63
2023/10/26 11:23:09;;;;;;;1.60;1.38;;;;;14.40;96577.00;;;;5048682;28;20053;-63
2023/10/26 11:25:37;;;;;;;1.92;1.50;;;;;14.60;96574.00;;;;5046708;28;20041;-63
2023/10/26 11:28:04;;;;;;;3.40;1.40;;;;;14.50;96571.00;;;;5049602;28;20050;-62
2023/10/26 11:30:45;;;;;;;3.75;1.85;;;;;14.40;96557.00;;;;5049561;28;20320;-63
2023/10/26 11:33:35;;;;;;;1.55;1.45;;;;;14.40;96547.00;;;;5049684;28;20057;-63
2023/10/26 11:36:06;;;;;;;2.15;1.77;;;;;14.40;96552.00;;;;5044006;28;20050;-62
2023/10/26 11:38:32;;;;;;;2.08;1.67;;;;;14.50;96546.00;;;;5033732;28;20052;-61
2023/10/26 11:40:59;;;;;;;2.42;1.77;;;;;14.60;96550.00;;;;5033727;28;20509;-62
2023/10/26 11:43:33;;;;;;;1.65;1.23;;;;;14.70;96553.00;;;;5033298;28;20410;-63
2023/10/26 11:46:02;;;;;;;2.40;1.45;;;;;14.70;96536.00;;;;5033530;28;20112;-60
2023/10/26 11:48:32;;;;;;;1.80;1.30;;;;;14.70;96539.00;;;;5033445;28;20075;-60
2023/10/26 11:50:58;;;;;;;2.83;1.30;;;;;14.70;96544.00;;;;5033495;28;20045;-61
2023/10/26 11:53:26;;;;;;;10.80;8.38;;;;;14.90;96536.00;;;;5032607;28;20049;-61
2023/10/26 11:55:53;;;;;;;4.65;2.92;;;;;15.00;96535.00;;;;5033153;28;20506;-61
2023/10/26 11:58:19;;;;;;;2.63;2.05;;;;;15.00;96530.00;;;;5033313;28;20045;-60
2023/10/26 12:00:46;;;;;;;2.38;2.00;;;;;15.10;96525.00;;;;5033702;28;20447;-62
2023/10/26 12:03:13;;;;;;;2.45;2.25;;;;;15.20;96528.00;;;;5033115;28;20042;-62
2023/10/26 12:05:40;;;;;;;2.60;1.73;;;;;15.20;96524.00;;;;5032510;28;20112;-63
2023/10/26 12:08:06;;;;;;;3.72;1.70;;;;;15.40;96517.00;;;;5033121;28;20065;-62
2023/10/26 12:10:33;;;;;;;2.22;1.10;;;;;15.60;96523.00;;;;5033359;28;20049;-62
2023/10/26 12:13:00;;;;;;;1.63;0.77;;;;;15.60;96521.00;;;;5033057;28;20507;-63
2023/10/26 12:15:27;;;;;;;1.33;1.10;;;;;15.70;96515.00;;;;5032466;28;20041;-61
2023/10/26 12:17:54;;;;;;;3.38;1.50;;;;;15.80;96515.00;;;;5032818;28;20056;-62
2023/10/26 12:20:21;;;;;;;2.75;1.20;;;;;15.80;96508.00;;;;5032811;28;20042;-63
2023/10/26 12:22:48;;;;;;;1.73;1.20;;;;;15.90;96512.00;;;;5031510;28;20052;-63